Main page
METAR-TAF:

METAR-TAF

Airports :

Heidrun oil field

Heidrun, Norway

latitude: 65-19-30N, longitude: 007-19-36E, elevation: 0 m

Current weather observation

The report was made 38 minutes ago, at 16:20 UTC
Wind 39 kt from the Southwest
Temperature 11°C
Humidity 87%
Pressure 1005 hPa
Visibility: 6000 m
Overcast at a height of 1300 ft
light rain,

METAR: ENHE 231620Z 22039KT 6000 -RA OVC013 11/09 Q1005 W///S4

Time: 18:58 (16:58 UTC)

Forecast

The report was made 2 hours and 58 minutes ago, at 14:00 UTC
Forecast valid from 23 at 15 UTC to 23 at 24 UTC
Wind 35 kt from the South/Southwest
Visibility 10 km or more
Few clouds at a height of 800 ft
Broken clouds at a height of 1500 ft
Probability 30% :
Temporary
from 23 at 15 UTC to 23 at 18 UTC
Broken clouds at a height of 1400 ft, Towering cumulus.
rain showers,

TAF: ENHE 231400Z 2315/2324 21035KT 9999 FEW008 BKN015 PROB30 TEMPO 2315/2318 SHRA BKN014TCU

Weather observations and forecasts of more than 4000 airports (METAR and TAF reports).

The available stations are represented by yellow and red dots on the map.

Hover mouse over dot to see the name of the station.

Then click to see weather observations and forecasts.

To change the map : click on the green buttons with a black cross to zoom in, on the green button with a dash to zoom out, or on the green arrows for adjacent maps.


METAR-TAF: